createdAt,value
2023-05-10T00:01:33.741Z,12.3
2023-05-10T00:05:43.783Z,12.4
2023-05-10T00:09:50.717Z,12.5
2023-05-10T00:39:48.922Z,12.2
2023-05-10T00:41:52.414Z,12.2
2023-05-10T01:17:01.048Z,12.3
2023-05-10T01:25:15.009Z,12.6
2023-05-10T01:35:35.551Z,12.4
2023-05-10T01:46:59.461Z,12.8
2023-05-10T01:51:06.432Z,12.7
2023-05-10T01:53:09.894Z,12.4
2023-05-10T01:55:13.391Z,12.8
2023-05-10T01:59:23.484Z,12.5
2023-05-10T02:01:26.992Z,12.6
2023-05-10T02:03:30.511Z,12.6
2023-05-10T02:05:33.977Z,12.7
2023-05-10T02:07:37.494Z,12.5
2023-05-10T02:09:40.930Z,12.6
2023-05-10T02:11:44.418Z,12.6
2023-05-10T02:15:54.495Z,12.7
2023-05-10T02:22:04.971Z,12.5
2023-05-10T02:24:08.431Z,12.9
2023-05-10T02:26:11.900Z,12.6
2023-05-10T02:28:18.444Z,12.5
2023-05-10T02:30:21.921Z,12.9
2023-05-10T02:32:26.962Z,12.5
2023-05-10T02:33:30.217Z,13
2023-05-10T02:35:33.704Z,12.7
2023-05-10T02:39:40.695Z,12.9
2023-05-10T02:43:50.713Z,12.6
2023-05-10T02:47:57.711Z,12.7
2023-05-10T02:52:04.650Z,12.7
2023-05-10T02:54:08.114Z,12.9
2023-05-10T02:56:14.688Z,12.7
2023-05-10T02:58:18.183Z,12.5
2023-05-10T03:00:21.710Z,12.8
2023-05-10T03:04:28.721Z,12.5
2023-05-10T03:08:35.644Z,12.8
2023-05-10T03:10:42.201Z,12.8
2023-05-10T03:14:49.159Z,13
2023-05-10T03:16:52.659Z,12.9
2023-05-10T03:18:56.154Z,12.5
2023-05-10T03:20:59.597Z,12.8
2023-05-10T03:23:03.107Z,12.9
2023-05-10T03:25:09.637Z,12.7
2023-05-10T03:27:13.123Z,12.8
2023-05-10T03:29:16.733Z,12.5
2023-05-10T03:35:41.834Z,12.9
2023-05-10T03:41:55.318Z,12.8
2023-05-10T03:46:02.339Z,12.8
2023-05-10T03:50:09.294Z,12.6
2023-05-10T03:52:15.804Z,12.7
2023-05-10T03:54:19.300Z,12.7
2023-05-10T03:56:22.809Z,12.7
2023-05-10T03:58:26.314Z,12.7
2023-05-10T04:00:29.764Z,12.7
2023-05-10T04:02:33.342Z,12.7
2023-05-10T04:04:36.735Z,12.7
2023-05-10T04:06:43.349Z,12.7
2023-05-10T04:08:46.837Z,12.6
2023-05-10T04:10:50.331Z,12.7
2023-05-10T04:12:53.848Z,12.7
2023-05-10T04:14:57.300Z,12.6
2023-05-10T04:17:00.813Z,12.7
2023-05-10T04:19:04.249Z,12.7
2023-05-10T04:21:10.859Z,12.7
2023-05-10T04:23:14.371Z,12.6
2023-05-10T04:25:17.834Z,12.6
2023-05-10T04:26:21.139Z,12.7
2023-05-10T04:28:24.626Z,12.7
2023-05-10T04:32:31.643Z,12.7
2023-05-10T04:34:38.217Z,12.7
2023-05-10T04:38:45.186Z,12.7
2023-05-10T04:40:48.631Z,12.6
2023-05-10T04:42:52.125Z,12.6
2023-05-10T04:44:55.642Z,12.7
2023-05-10T04:46:59.089Z,12.6
2023-05-10T04:49:05.673Z,12.5
2023-05-10T04:51:09.138Z,12.6
2023-05-10T04:55:16.104Z,12.6
2023-05-10T04:57:19.571Z,12.6
2023-05-10T04:59:23.083Z,12.6
2023-05-10T05:01:26.653Z,12.5
2023-05-10T05:03:33.170Z,12.5
2023-05-10T05:05:36.629Z,12.5
2023-05-10T05:07:40.100Z,12.5
2023-05-10T05:09:43.587Z,12.4
2023-05-10T05:11:47.065Z,12.4
2023-05-10T05:18:00.707Z,12.4
2023-05-10T05:20:04.100Z,12.4
2023-05-10T05:22:07.602Z,12.4
2023-05-10T05:23:10.893Z,12.4
2023-05-10T05:25:14.383Z,12.4
2023-05-10T05:27:17.955Z,12.4
2023-05-10T05:29:21.344Z,12.4
2023-05-10T05:31:27.990Z,12.4
2023-05-10T05:35:34.897Z,12.4
2023-05-10T05:37:38.419Z,12.5
2023-05-10T05:39:41.868Z,12.5
2023-05-10T05:41:45.373Z,12.5
2023-05-10T05:47:59.350Z,12.6
2023-05-10T05:50:02.431Z,12.6
2023-05-10T05:52:05.923Z,12.5
2023-05-10T05:54:09.439Z,12.5
2023-05-10T05:56:12.914Z,12.6
2023-05-10T05:58:16.371Z,12.6
2023-05-10T06:00:22.992Z,12.7
2023-05-10T06:16:54.036Z,12.6
2023-05-10T06:18:57.462Z,12.5
2023-05-10T06:24:07.783Z,12.5
2023-05-10T06:26:11.235Z,12.5
2023-05-10T06:28:17.821Z,12.6
2023-05-10T06:30:21.377Z,12.6
2023-05-10T06:34:28.238Z,12.5
2023-05-10T06:38:35.224Z,12.6
2023-05-10T06:40:38.701Z,12.6
2023-05-10T06:42:45.274Z,12.7
2023-05-10T06:44:48.782Z,12.7
2023-05-10T06:46:52.308Z,12.7
2023-05-10T06:50:59.222Z,12.7
2023-05-10T06:53:02.723Z,12.7
2023-05-10T06:55:06.226Z,12.7
2023-05-10T06:57:23.355Z,12.6
2023-05-10T06:59:16.331Z,12.6
2023-05-10T07:01:19.918Z,12.6
2023-05-10T07:03:23.286Z,12.6
2023-05-10T07:05:26.794Z,12.6
2023-05-10T07:07:30.241Z,12.5
2023-05-10T07:09:33.699Z,12.5
2023-05-10T07:11:40.288Z,12.5
2023-05-10T07:13:43.782Z,12.5
2023-05-10T07:15:47.279Z,12.5
2023-05-10T07:22:18.199Z,12.5
2023-05-10T07:24:24.811Z,12.5
2023-05-10T07:26:28.314Z,12.4
2023-05-10T07:28:31.775Z,12.4
2023-05-10T07:30:35.347Z,12.4
2023-05-10T07:32:38.879Z,12.5
2023-05-10T07:34:42.259Z,12.5
2023-05-10T07:36:45.722Z,12.5
2023-05-10T07:38:52.288Z,12.8
2023-05-10T07:40:55.815Z,12.9
2023-05-10T07:42:59.314Z,13
2023-05-10T07:47:06.281Z,13
2023-05-10T07:49:09.767Z,13
2023-05-10T07:53:19.848Z,13.6
2023-05-10T07:55:23.355Z,13.8
2023-05-10T07:57:26.820Z,13.8
2023-05-10T07:59:30.293Z,14
2023-05-10T08:03:37.372Z,13.9
2023-05-10T08:05:40.704Z,13.9
2023-05-10T08:09:50.712Z,14
2023-05-10T08:11:54.209Z,13.9
2023-05-10T08:12:57.455Z,13.8
2023-05-10T08:15:00.947Z,13.8
2023-05-10T08:17:04.390Z,13.9
2023-05-10T08:19:08.072Z,13.8
2023-05-10T08:21:14.444Z,14
2023-05-10T08:23:17.928Z,13.9
2023-05-10T08:25:21.326Z,14
2023-05-10T08:27:26.396Z,14
2023-05-10T08:29:32.773Z,13.9
2023-05-10T08:31:33.321Z,13.7
2023-05-10T08:33:36.737Z,13.7
2023-05-10T08:48:04.018Z,14.5
2023-05-10T08:50:10.530Z,14.2
2023-05-10T08:54:17.435Z,14.1
2023-05-10T08:56:20.876Z,14
2023-05-10T08:58:24.335Z,13.9
2023-05-10T09:00:27.742Z,13.8
2023-05-10T09:04:37.885Z,13.6
2023-05-10T09:06:41.196Z,13.5
2023-05-10T09:11:51.362Z,13.4
2023-05-10T09:13:54.794Z,13.4
2023-05-10T09:18:04.846Z,13.5
2023-05-10T09:20:08.237Z,13.6
2023-05-10T09:24:15.131Z,13.6
2023-05-10T09:28:22.024Z,13.5
2023-05-10T09:32:32.071Z,13.6
2023-05-10T09:42:43.349Z,13.6
2023-05-10T10:06:30.877Z,14.5
2023-05-10T10:08:34.274Z,14.6
2023-05-10T10:10:37.723Z,14.5
2023-05-10T10:12:41.134Z,14.5
2023-05-10T10:14:47.665Z,14.6
2023-05-10T10:23:01.436Z,15.3
2023-05-10T10:25:04.869Z,15.4
2023-05-10T10:27:08.367Z,15.5
2023-05-10T10:29:14.822Z,15.5
2023-05-10T10:31:18.344Z,15.5
2023-05-10T10:35:25.149Z,15.1
2023-05-10T10:39:31.994Z,15.1
2023-05-10T10:41:35.443Z,15.1
2023-05-10T10:43:41.968Z,15.2
2023-05-10T10:45:45.436Z,15.2
2023-05-10T10:47:48.890Z,15.1
2023-05-10T10:49:52.282Z,15.1
2023-05-10T10:51:55.654Z,15.3
2023-05-10T10:56:02.528Z,15.1
2023-05-10T11:19:01.016Z,15.5
2023-05-10T11:21:04.390Z,15.6
2023-05-10T11:29:21.206Z,15.5
2023-05-10T11:39:41.505Z,16.9
2023-05-10T11:41:44.912Z,17.2
2023-05-10T11:43:48.325Z,17.5
2023-05-10T11:45:51.707Z,17.3
2023-05-10T11:47:55.111Z,17.2
2023-05-10T11:58:15.011Z,16.2
2023-05-10T11:59:18.284Z,16.3
2023-05-10T12:01:21.550Z,16.5
2023-05-10T12:03:25.038Z,16.5
2023-05-10T12:09:43.886Z,16.5
2023-05-10T12:19:54.966Z,16.7
2023-05-10T12:22:01.513Z,16.5
2023-05-10T12:24:04.818Z,16.5
2023-05-10T12:28:22.743Z,16.2
2023-05-10T12:34:21.620Z,15.7
2023-05-10T12:36:28.114Z,15.9
2023-05-10T12:40:34.896Z,15.8
2023-05-10T12:42:38.201Z,15.9
2023-05-10T12:44:41.551Z,15.7
2023-05-10T12:46:44.935Z,15.7
2023-05-10T12:48:48.337Z,15.7
2023-05-10T12:50:54.784Z,15.7
2023-05-10T12:55:01.640Z,15.8
2023-05-10T12:56:04.847Z,15.7
2023-05-10T12:58:08.214Z,15.7
2023-05-10T13:00:11.656Z,15.7
2023-05-10T13:04:21.450Z,15.7
2023-05-10T13:06:24.799Z,15.7
2023-05-10T13:10:31.516Z,15.8
2023-05-10T13:14:38.293Z,16.1
2023-05-10T13:16:42.478Z,16.1
2023-05-10T13:18:48.994Z,16.3
2023-05-10T13:20:52.337Z,16.4
2023-05-10T13:24:59.122Z,16.6
2023-05-10T13:35:19.231Z,16.6
2023-05-10T13:37:22.614Z,16.6
2023-05-10T13:39:26.027Z,16.8
2023-05-10T13:51:49.381Z,16.8
2023-05-10T13:52:52.664Z,16.8
2023-05-10T13:54:56.028Z,16.8
2023-05-10T13:56:59.322Z,16.6
2023-05-10T14:38:17.085Z,17.7
2023-05-10T14:40:20.419Z,17.4
2023-05-10T14:53:03.549Z,17.5
2023-05-10T14:55:06.876Z,17.4
2023-05-10T14:57:13.214Z,17.4
2023-05-10T14:59:16.459Z,17.2
2023-05-10T15:01:19.834Z,17
2023-05-10T15:03:23.342Z,16.9
2023-05-10T15:05:26.305Z,16.6
2023-05-10T15:07:29.654Z,16.5
2023-05-10T15:11:39.403Z,16.4
2023-05-10T15:13:42.774Z,16.3
2023-05-10T15:15:46.163Z,16.2
2023-05-10T15:17:49.551Z,16.2
2023-05-10T15:21:56.216Z,16.1
2023-05-10T15:26:06.076Z,15.8
2023-05-10T15:28:09.458Z,15.8
2023-05-10T15:32:16.233Z,15.8
2023-05-10T15:34:19.633Z,15.7
2023-05-10T15:40:32.903Z,15.1
2023-05-10T15:42:36.302Z,15
2023-05-10T15:44:39.707Z,14.6
2023-05-10T15:45:42.946Z,14.4
2023-05-10T15:47:46.439Z,14.3
2023-05-10T15:49:49.757Z,14.2
2023-05-10T15:51:53.205Z,14.1
2023-05-10T15:54:07.274Z,14.1
2023-05-10T15:56:03.147Z,14
2023-05-10T15:58:06.621Z,14
2023-05-10T16:04:16.883Z,14
2023-05-10T16:08:26.837Z,14.1
2023-05-10T16:10:30.264Z,14.1
2023-05-10T16:12:33.712Z,14.1
2023-05-10T16:16:40.737Z,14.1
2023-05-10T16:20:47.534Z,14.2
2023-05-10T16:22:54.093Z,14.2
2023-05-10T16:24:57.536Z,14.2
2023-05-10T16:29:04.462Z,14.4
2023-05-10T16:31:07.904Z,14.3
2023-05-10T16:33:11.320Z,14.4
2023-05-10T16:35:14.884Z,14.6
2023-05-10T16:37:21.312Z,14.7
2023-05-10T16:39:24.751Z,14.8
2023-05-10T16:41:28.216Z,14.8
2023-05-10T16:42:31.481Z,14.9
2023-05-10T16:44:34.939Z,14.9
2023-05-10T16:46:38.442Z,14.9
2023-05-10T17:01:05.620Z,14.9
2023-05-10T17:03:09.227Z,14.9
2023-05-10T17:07:19.063Z,14.9
2023-05-10T17:11:25.964Z,14.8
2023-05-10T17:13:29.415Z,14.8
2023-05-10T17:15:32.896Z,14.7
2023-05-10T17:19:42.808Z,14.7
2023-05-10T17:21:46.220Z,14.7
2023-05-10T17:23:49.679Z,14.8
2023-05-10T17:25:53.166Z,14.8
2023-05-10T17:27:56.577Z,14.8
2023-05-10T17:30:00.043Z,14.8
2023-05-10T17:32:03.480Z,14.9
2023-05-10T17:34:10.013Z,14.7
2023-05-10T17:38:16.868Z,14.6
2023-05-10T17:39:20.160Z,14.6
2023-05-10T17:41:23.649Z,14.5
2023-05-10T17:43:27.035Z,14.5
2023-05-10T17:45:30.508Z,14.5
2023-05-10T17:47:37.045Z,14.4
2023-05-10T17:49:40.464Z,14.5
2023-05-10T17:51:43.886Z,14.5
2023-05-10T17:53:47.351Z,14.5
2023-05-10T17:55:50.806Z,14.4
2023-05-10T17:57:54.240Z,14.4
2023-05-10T17:59:57.668Z,14.3
2023-05-10T18:02:04.249Z,14.4
2023-05-10T18:04:07.678Z,14.4
2023-05-10T18:06:11.171Z,14.4
2023-05-10T18:08:14.557Z,14.4
2023-05-10T18:10:17.985Z,14.4
2023-05-10T18:12:21.427Z,14.3
2023-05-10T18:14:35.990Z,14.4
2023-05-10T18:16:31.404Z,14.3
2023-05-10T18:18:34.861Z,14.2
2023-05-10T18:20:38.307Z,14.2
2023-05-10T18:22:41.757Z,14.1
2023-05-10T18:24:45.233Z,14
2023-05-10T18:26:48.694Z,13.9
2023-05-10T18:28:52.124Z,13.9
2023-05-10T18:30:58.703Z,13.8
2023-05-10T18:33:02.183Z,13.8
2023-05-10T18:35:05.595Z,13.7
2023-05-10T18:37:29.918Z,13.7
2023-05-10T18:45:46.730Z,13.6
2023-05-10T18:49:53.673Z,13.5
2023-05-10T19:04:20.999Z,13.1
2023-05-10T19:06:24.384Z,13
2023-05-10T19:08:27.846Z,13
2023-05-10T19:10:31.348Z,13
2023-05-10T19:12:37.877Z,12.9
2023-05-10T19:14:41.372Z,12.9
2023-05-10T19:16:44.856Z,12.8
2023-05-10T19:20:52.419Z,12.7
2023-05-10T19:23:09.043Z,12.7
2023-05-10T19:24:58.760Z,12.7
2023-05-10T19:29:08.822Z,12.7
2023-05-10T19:31:12.333Z,12.7
2023-05-10T19:32:15.594Z,12.8
2023-05-10T19:34:19.083Z,12.7
2023-05-10T19:36:22.518Z,12.8
2023-05-10T19:38:25.949Z,12.6
2023-05-10T19:40:32.536Z,12.6
2023-05-10T19:44:39.470Z,12.4
2023-05-10T19:57:03.436Z,12.9
2023-05-10T20:05:17.465Z,12.6
2023-05-10T20:07:20.806Z,13.2
2023-05-10T20:17:41.244Z,13
2023-05-10T20:21:49.596Z,12.9
2023-05-10T20:25:59.609Z,12.7
2023-05-10T20:28:03.126Z,12.9
2023-05-10T20:33:13.297Z,13
2023-05-10T20:35:16.745Z,13.2
2023-05-10T20:39:26.779Z,12.9
2023-05-10T20:49:44.098Z,12.8
2023-05-10T20:51:50.520Z,13
2023-05-10T20:55:57.428Z,12.9
2023-05-10T20:58:03.430Z,12.9
2023-05-10T21:00:04.354Z,13.1
2023-05-10T21:02:07.797Z,13
2023-05-10T21:04:11.264Z,12.8
2023-05-10T21:06:18.003Z,12.8
2023-05-10T21:08:21.236Z,12.8
2023-05-10T21:10:24.660Z,12.8
2023-05-10T21:12:28.175Z,12.9
2023-05-10T21:14:31.644Z,13.1
2023-05-10T21:25:55.271Z,12.9
2023-05-10T21:27:58.743Z,12.9
2023-05-10T21:30:02.197Z,13
2023-05-10T21:32:05.690Z,12.7
2023-05-10T21:40:22.617Z,12.7
2023-05-10T21:44:29.513Z,12.9
2023-05-10T21:50:42.965Z,12.9
2023-05-10T21:52:46.435Z,13
2023-05-10T21:58:56.823Z,12.5
2023-05-10T22:01:00.337Z,12.5
2023-05-10T22:15:27.658Z,12.5
2023-05-10T22:19:37.716Z,12.5
2023-05-10T22:24:03.365Z,12.4
2023-05-10T22:28:10.399Z,12.3
2023-05-10T22:40:34.321Z,12.2
2023-05-10T22:42:37.764Z,12.3
2023-05-10T22:46:47.887Z,12.2
2023-05-10T22:48:51.353Z,12.3
2023-05-10T22:50:54.831Z,12.5
2023-05-10T22:52:58.331Z,12.5
2023-05-10T22:55:01.808Z,12.3
2023-05-10T22:57:05.305Z,12.4
2023-05-10T23:07:25.869Z,12.4
2023-05-10T23:09:29.326Z,12.4
2023-05-10T23:18:49.753Z,12.3
2023-05-10T23:20:53.142Z,12.4
2023-05-10T23:22:56.644Z,12.1
2023-05-10T23:25:00.202Z,12.3
2023-05-10T23:27:06.698Z,12.2
2023-05-10T23:29:10.188Z,12.3
2023-05-10T23:33:17.152Z,12.3
2023-05-10T23:37:24.184Z,12.4
2023-05-10T23:39:27.643Z,12.4
2023-05-10T23:41:34.199Z,12.3
2023-05-10T23:45:41.323Z,12.2
